Карточка аэропорта UATT

Внимание!
Информация на этой странице в стадии наполнения.
Если вы не увидели какой-то информации, или заметили неточность - пожалуйста сообщите нам!
Спасибо!
Команда RU-STAFF
Название аэропортаАктобе
Название аэропорта (англ.)Aktobe
Превышение738 ft. (224.9 m.)
Координаты50°14.748', 57°12.402'
Высота перехода10000ft
Эшелон переходаFL120, QNH<733:FL130
Коды ответчика3440-3447, 3540-3547
Зона ОрВДАктобе РПИ (UATT)
Данные METARUATT 042230Z 30006MPS 7000 -SN SCT011 BKN044 M12/M14 Q1035 NOSIG RMK QFE756/1008
Проноз погоды (TAF)UATT 041702Z 0418/0518 34006MPS 3100 -SN BKN015 TXM10/0512Z TNM16/0503Z TEMPO 0419/0506 34011MPS 1000 SN BR BKN004 BKN011 BECMG 0512/0514 03003MPS 9999 NSW TEMPO 0514/0518 3100 BR BKN005
NOTAMshow/hide NOTAM
AWOS   TABLE

Информация о ВПП

ВПП Длина ВПП (м.) Покрытие Курс ВПП Частота ILS
133202Бетон135111.7
313202Бетон315111.7

Диспетчерские позиции




Спутниковое изображение